• Join FlightAware (Why Join?)
  • Login
  • US Flag 
12:02AM EDT


 

Airport Tracker/Info


-or-


 

Live Flight TrackerFlight Track Log ✈ AWE3417 ✈ 29-Apr-2013 ✈ KMHT - KDCA

Flight Track Log - Related Links

Times and Time Zones

All times are in EDT time to prevent confusion due to time zone crossing. See the AWE3417 flight status page for this flight to view local times or setup timezone preferences in your user account.

Time Position Orientation Groundspeed Altitude Reporting Facility
EDT Latitude Longitude Course Direction KTS MPH feet Rate Location/Type
05:10PM 42.9167 -71.4167 202° Southwest 139 160 1,300  Level KA90
05:11PM 42.9094 -71.5189 265° West 276 318 5,200 2,820 Climbing Boston Center
05:12PM 43.0532 -71.0905 65° Northeast  Level FlightAware Approximate
05:12PM 42.9739 -71.5094 North 265 305 8,800  Level Boston Center
05:13PM 43.0745 -70.9701 132° Southeast  Level FlightAware Approximate
05:13PM 43.0061 -71.3953 69° East 237 273 10,000  Level Boston Center
05:14PM 43.0010 -70.8843 144° Southeast  Level FlightAware Approximate
05:14PM 43.0300 -71.2728 75° East 286 329 10,500  Level Boston Center
05:15PM 42.9137 -70.9054 202° Southwest  Level FlightAware Approximate
05:15PM 43.0558 -71.1444 75° East 329 379 13,200  Level Boston Center
05:16PM 43.0731 -71.0106 80° East 352 405 16,400 2,460 Climbing Boston Center
05:17PM 43.0153 -70.9067 127° Southeast 325 374 18,200 1,680 Climbing Boston Center
05:18PM 42.9236 -70.9089 181° South 304 350 19,800 1,980 Climbing Boston Center
05:19PM 42.8222 -70.9625 201° Southwest 335 386 22,200 2,100 Climbing Boston Center
05:20PM 42.7186 -71.0131 200° South 365 420 24,000 1,680 Climbing Boston Center
05:21PM 42.6303 -71.1053 218° Southwest 391 450 25,600 1,500 Climbing Boston Center
05:22PM 42.5756 -71.2447 242° Southwest 391 450 27,100 1,200 Climbing Boston Center
05:23PM 42.5183 -71.3808 240° Southwest 413 475 28,000 420 Climbing Boston Center
05:24PM 42.4592 -71.5197 240° Southwest 424 488 28,000  Level Boston Center
05:25PM 42.3978 -71.6500 237° Southwest 424 488 28,000  Level Boston Center
05:26PM 42.3381 -71.7883 240° Southwest 424 488 28,000  Level Boston Center
05:27PM 42.2783 -71.9208 239° Southwest 424 488 28,000  Level Boston Center
05:28PM 42.2206 -72.0561 240° Southwest 424 488 28,000  Level Boston Center
05:29PM 42.1625 -72.1881 239° Southwest 424 488 28,000  Level Boston Center
05:30PM 42.1044 -72.3225 240° Southwest 424 488 28,000  Level Boston Center
05:31PM 42.0439 -72.4569 239° Southwest 424 488 28,000  Level Boston Center
05:32PM 41.9856 -72.5881 239° Southwest 424 488 28,000  Level Boston Center
05:33PM 41.9250 -72.7108 236° Southwest 417 480 28,000  Level Boston Center
05:34PM 41.8433 -72.8219 225° Southwest 417 480 28,000  Level Boston Center
05:35PM 41.7594 -72.9383 226° Southwest 428 493 28,000  Level Boston Center
05:36PM 41.6775 -73.0517 226° Southwest 428 493 28,000  Level Boston Center
05:37PM 41.5978 -73.1592 225° Southwest 422 486 28,000  Level Boston Center
05:39PM 41.4500 -73.3536 225° Southwest 410 472 28,000  Level New York Center
05:40PM 41.3706 -73.4639 226° Southwest 410 472 28,000  Level New York Center
05:41PM 41.2886 -73.5739 225° Southwest 422 486 28,000  Level New York Center
05:42PM 41.2172 -73.6922 231° Southwest 422 486 28,000  Level New York Center
05:43PM 41.1497 -73.8078 232° Southwest 417 480 28,000  Level New York Center
05:44PM 41.0778 -73.9256 231° Southwest 411 473 28,000  Level New York Center
05:45PM 41.0100 -74.0406 232° Southwest 411 473 28,000  Level New York Center
05:46PM 40.9403 -74.1553 231° Southwest 411 473 28,000  Level New York Center
05:47PM 40.8614 -74.2831 231° Southwest 411 473 28,000  Level New York Center
05:48PM 40.7914 -74.4000 232° Southwest 411 473 28,000  Level New York Center
05:49PM 40.7189 -74.5139 230° Southwest 411 473 28,000 -360 Level New York Center
05:50PM 40.6506 -74.6306 232° Southwest 416 479 27,400 -840 Descending New York Center
05:51PM 40.5803 -74.7414 230° Southwest 416 479 26,400 -1,080 Descending New York Center
05:52PM 40.5078 -74.8492 229° Southwest 411 473 25,300 -1,080 Descending New York Center
05:53PM 40.4356 -74.9511 227° Southwest 404 465 24,300 -1,020 Descending New York Center
05:54PM 40.3608 -75.0556 227° Southwest 398 458 23,300 -1,080 Descending New York Center
05:55PM 40.2906 -75.1572 228° Southwest 398 458 22,200 -1,080 Descending New York Center
05:56PM 40.2178 -75.2586 227° Southwest 393 452 21,200 -1,020 Descending New York Center
05:57PM 40.1453 -75.3600 227° Southwest 393 452 20,200 -660 Descending New York Center
05:58PM 40.0767 -75.4558 227° Southwest 383 441 20,000 -120 Descending New York Center
05:59PM 40.0083 -75.5514 227° Southwest 378 435 20,000  Level New York Center
06:00PM 39.9378 -75.6469 226° Southwest 378 435 20,000  Level New York Center
06:01PM 39.8814 -75.7458 233° Southwest 365 420 20,000  Level New York Center
06:02PM 39.8361 -75.8317 236° Southwest 347 399 20,000  Level New York Center
06:03PM 39.7819 -75.9278 234° Southwest 342 394 20,000 -60 Level New York Center
06:04PM 39.7378 -76.0272 240° Southwest 330 380 19,900 -960 Descending New York Center
06:05PM 39.6792 -76.1281 233° Southwest 323 372 18,100 -1,860 Descending New York Center
06:06PM 39.6289 -76.2214 235° Southwest 323 372 16,300 -1,680 Descending New York Center
06:07PM 39.5769 -76.3089 232° Southwest 323 372 14,800 -1,740 Descending New York Center
06:09PM 39.5333 -76.4500 248° West 307 353 12,200 -1,260 Descending Potomac TRACON
06:09PM 39.5167 -76.5333 255° West 299 344 12,000 -120 Descending Potomac TRACON
06:11PM 39.5000 -76.6500 260° West 306 352 12,000  Level Potomac TRACON
06:12PM 39.4167 -76.6667 189° South 292 336 12,000 -360 Level Potomac TRACON
06:13PM 39.3333 -76.6667 180° South 299 344 11,300 -720 Descending Potomac TRACON
06:13PM 39.2667 -76.6667 180° South 296 341 10,700 -720 Descending Potomac TRACON
06:14PM 39.1833 -76.6667 180° South 293 337 10,000 -420 Descending Potomac TRACON
06:15PM 39.1167 -76.7167 210° Southwest 287 330 10,000  Level Potomac TRACON
06:16PM 39.0500 -76.8000 224° Southwest 287 330 10,000 -480 Level Potomac TRACON
06:17PM 39.0000 -76.8667 226° Southwest 285 328 9,100 -1,200 Descending Potomac TRACON
06:18PM 38.9667 -76.9667 247° West 287 330 7,600 -1,500 Descending Potomac TRACON
06:19PM 39.0000 -77.0500 297° West 287 330 6,100 -1,320 Descending Potomac TRACON
06:20PM 39.0500 -77.1167 314° West 266 306 5,000 -1,200 Descending Potomac TRACON
06:21PM 39.0833 -77.1833 303° West 233 268 3,800 -1,020 Descending Potomac TRACON
06:22PM 39.0500 -77.2167 218° Southwest 185 213 3,000 -420 Descending Potomac TRACON
06:23PM 39.0000 -77.2000 165° South 149 171 3,000 -120 Level Potomac TRACON
06:24PM 38.9833 -77.1667 123° Southeast 147 169 2,800 -240 Descending Potomac TRACON